Time;durP1;ratioP1;P1;durP2;ratioP2;P2;SDS_P1;SDS_P2;PMS_P1;PMS_P2;Temp;Humidity;BMP_temperature;BMP_pressure;BME280_temperature;BME280_humidity;BME280_pressure;Samples;Min_cycle;Max_cycle;Signal;HPM_P1;HPM_P2
2021/03/29 00:02:02;;;;;;;;;;;;;;;17.40;66.61;102383.56;5006073;28;1545;-56
2021/03/29 00:04:28;;;;;;;;;;;;;;;17.43;66.54;102395.91;5006752;28;1525;-56
2021/03/29 00:06:54;;;;;;;;;;;;;;;17.44;67.04;102394.97;5007573;28;1585;-56
2021/03/29 00:09:20;;;;;;;;;;;;;;;17.42;66.17;102400.38;5005913;28;1434;-67
2021/03/29 00:11:46;;;;;;;;;;;;;;;17.40;66.82;102399.59;5006517;28;1391;-55
2021/03/29 00:14:12;;;;;;;;;;;;;;;17.41;67.20;102401.34;5006334;28;1914;-67
2021/03/29 00:16:39;;;;;;;;;;;;;;;17.38;66.38;102400.66;5005573;28;1433;-67
2021/03/29 00:19:08;;;;;;;;;;;;;;;17.37;66.59;102402.47;5005346;28;1442;-62
2021/03/29 00:21:34;;;;;;;;;;;;;;;17.41;66.74;102400.50;5006322;28;1598;-67
2021/03/29 00:24:00;;;;;;;;;;;;;;;17.39;65.83;102405.03;5006442;28;1492;-67
2021/03/29 00:26:25;;;;;;;;;;;;;;;17.40;66.04;102412.97;5008358;28;1429;-56
2021/03/29 00:28:51;;;;;;;;;;;;;;;17.38;66.80;102406.84;5006759;28;1521;-56
2021/03/29 00:31:16;;;;;;;;;;;;;;;17.38;66.94;102403.31;5006027;28;1489;-56
2021/03/29 00:33:42;;;;;;;;;;;;;;;17.38;66.71;102424.72;5005624;28;1894;-68
2021/03/29 00:36:08;;;;;;;;;;;;;;;17.38;66.99;102420.22;5005605;28;1426;-56
2021/03/29 00:38:35;;;;;;;;;;;;;;;17.38;66.42;102414.88;5005783;28;1569;-56
2021/03/29 00:41:07;;;;;;;;;;;;;;;17.35;66.62;102403.47;5006819;28;1561;-61
2021/03/29 00:43:34;;;;;;;;;;;;;;;17.37;66.26;102417.63;5005792;28;1383;-68
2021/03/29 00:46:00;;;;;;;;;;;;;;;17.36;66.71;102408.75;5006963;28;1580;-67
2021/03/29 00:48:27;;;;;;;;;;;;;;;17.37;66.88;102414.94;5006012;28;1435;-67
2021/03/29 00:51:10;;;;;;;;;;;;;;;17.37;66.71;102412.28;5005572;28;1519;-56
2021/03/29 00:53:36;;;;;;;;;;;;;;;17.36;66.03;102407.91;5006411;28;1886;-67
2021/03/29 00:56:02;;;;;;;;;;;;;;;17.35;66.72;102400.81;5006009;28;1453;-67
2021/03/29 00:58:28;;;;;;;;;;;;;;;17.35;65.76;102400.81;5005497;28;1410;-56
2021/03/29 01:00:55;;;;;;;;;;;;;;;17.34;66.17;102409.78;5006905;28;1493;-68
2021/03/29 01:03:25;;;;;;;;;;;;;;;17.36;65.69;102421.25;5006112;28;1491;-68
2021/03/29 01:06:05;;;;;;;;;;;;;;;17.35;65.79;102409.72;5004749;28;1287;-56
2021/03/29 01:08:32;;;;;;;;;;;;;;;17.34;66.76;102416.00;5005361;28;1315;-69
2021/03/29 01:10:59;;;;;;;;;;;;;;;17.34;66.25;102413.31;5005436;28;1537;-56
2021/03/29 01:13:24;;;;;;;;;;;;;;;17.31;67.07;102424.19;5005221;28;1906;-69
2021/03/29 01:15:51;;;;;;;;;;;;;;;17.32;66.05;102406.34;5005063;28;1335;-67
2021/03/29 01:18:18;;;;;;;;;;;;;;;17.32;66.69;102412.53;5006505;28;1418;-68
2021/03/29 01:21:02;;;;;;;;;;;;;;;17.32;66.08;102419.72;5021886;28;1450;-56
2021/03/29 01:23:29;;;;;;;;;;;;;;;17.33;66.78;102410.72;5005249;28;1622;-67
2021/03/29 01:26:09;;;;;;;;;;;;;;;17.35;66.64;102428.44;5006413;28;1256;-56
2021/03/29 01:28:35;;;;;;;;;;;;;;;17.32;66.38;102420.56;5005027;28;1407;-56
2021/03/29 01:31:01;;;;;;;;;;;;;;;17.32;65.80;102431.25;5005612;28;1577;-56
2021/03/29 01:33:27;;;;;;;;;;;;;;;17.31;66.19;102413.50;5005248;28;1969;-56
2021/03/29 01:35:56;;;;;;;;;;;;;;;17.34;66.20;102424.00;5006048;28;1339;-67
2021/03/29 01:38:24;;;;;;;;;;;;;;;17.33;65.84;102433.00;5004584;28;1374;-56
2021/03/29 01:40:50;;;;;;;;;;;;;;;17.33;65.96;102432.13;5007317;28;1331;-56
2021/03/29 01:43:16;;;;;;;;;;;;;;;17.30;65.90;102419.78;5005366;28;1481;-55
2021/03/29 01:45:42;;;;;;;;;;;;;;;17.32;66.33;102422.38;5003775;28;1601;-56
2021/03/29 01:48:09;;;;;;;;;;;;;;;17.32;65.67;102420.56;5005102;28;1532;-56
2021/03/29 01:50:37;;;;;;;;;;;;;;;17.30;66.71;102422.47;5005864;28;1211;-67
2021/03/29 01:53:04;;;;;;;;;;;;;;;17.28;65.76;102429.69;5006201;28;1890;-57
2021/03/29 01:55:30;;;;;;;;;;;;;;;17.29;65.64;102426.94;5008589;28;1387;-56
2021/03/29 01:57:56;;;;;;;;;;;;;;;17.31;66.46;102424.19;5008799;28;1525;-67
2021/03/29 02:02:56;;;;;;;;;;;;;;;17.29;66.65;102421.59;5022653;28;1586;-45
2021/03/29 02:05:22;;;;;;;;;;;;;;;17.27;66.75;102422.66;5027137;28;1727;-45
2021/03/29 02:07:48;;;;;;;;;;;;;;;17.29;65.80;102432.28;5028109;28;1610;-45
2021/03/29 02:12:41;;;;;;;;;;;;;;;17.27;66.49;102423.50;5060089;28;1396;-56
2021/03/29 02:15:11;;;;;;;;;;;;;;;17.28;65.66;102429.69;5066832;28;1935;-67
2021/03/29 02:17:37;;;;;;;;;;;;;;;17.29;66.77;102437.66;5067876;28;1261;-67
2021/03/29 02:20:07;;;;;;;;;;;;;;;17.26;66.03;102432.44;5066866;28;1239;-56
2021/03/29 02:22:32;;;;;;;;;;;;;;;17.25;66.11;102435.22;5067456;28;1559;-56
2021/03/29 02:24:58;;;;;;;;;;;;;;;17.26;66.46;102436.94;5066182;28;1575;-55
2021/03/29 02:27:23;;;;;;;;;;;;;;;17.24;66.51;102434.34;5069987;28;1575;-57
2021/03/29 02:29:50;;;;;;;;;;;;;;;17.22;66.34;102427.38;5068837;28;1512;-56
2021/03/29 02:32:15;;;;;;;;;;;;;;;17.25;65.84;102432.56;5068533;28;1341;-56
2021/03/29 02:34:41;;;;;;;;;;;;;;;17.24;65.29;102436.16;5067247;28;1878;-67
2021/03/29 02:37:06;;;;;;;;;;;;;;;17.22;66.43;102430.91;5067797;28;1491;-56
2021/03/29 02:39:31;;;;;;;;;;;;;;;17.24;66.19;102436.16;5067393;28;1495;-56
2021/03/29 02:41:57;;;;;;;;;;;;;;;17.25;66.44;102435.22;5068920;28;1369;-67
2021/03/29 02:44:23;;;;;;;;;;;;;;;17.23;66.22;102434.41;5066368;28;1404;-68
2021/03/29 02:46:49;;;;;;;;;;;;;;;17.22;66.33;102440.72;5067016;28;1455;-56
2021/03/29 02:49:15;;;;;;;;;;;;;;;17.22;65.39;102436.25;5066020;28;1347;-56
2021/03/29 02:51:42;;;;;;;;;;;;;;;17.23;66.32;102426.41;5068211;28;1610;-67
2021/03/29 02:54:08;;;;;;;;;;;;;;;17.23;65.87;102434.41;5067277;28;1882;-56
2021/03/29 02:56:38;;;;;;;;;;;;;;;17.21;65.39;102425.63;5069173;28;1435;-56
2021/03/29 02:59:06;;;;;;;;;;;;;;;17.21;66.17;102417.59;5067562;28;1543;-67
2021/03/29 03:01:32;;;;;;;;;;;;;;;17.22;66.14;102430.03;5059573;28;1497;-56
2021/03/29 03:03:58;;;;;;;;;;;;;;;17.24;66.34;102433.50;5047110;28;1537;-67
2021/03/29 03:06:26;;;;;;;;;;;;;;;17.24;65.42;102425.47;5048038;28;1492;-68
2021/03/29 03:08:51;;;;;;;;;;;;;;;17.20;66.52;102423.91;5048090;28;1449;-67
2021/03/29 03:11:17;;;;;;;;;;;;;;;17.20;66.08;102421.25;5048519;28;1329;-56
2021/03/29 03:13:44;;;;;;;;;;;;;;;17.20;65.71;102442.63;5048531;28;1918;-68
2021/03/29 03:16:10;;;;;;;;;;;;;;;17.20;66.63;102430.13;5047388;28;1667;-56
2021/03/29 03:18:35;;;;;;;;;;;;;;;17.18;65.47;102412.44;5047654;28;1345;-56
2021/03/29 03:21:01;;;;;;;;;;;;;;;17.21;65.68;102423.84;5048070;28;1591;-56
2021/03/29 03:23:26;;;;;;;;;;;;;;;17.17;65.49;102413.38;5047927;28;1369;-68
2021/03/29 03:25:52;;;;;;;;;;;;;;;17.21;66.32;102428.28;5048497;28;1492;-56
2021/03/29 03:28:19;;;;;;;;;;;;;;;17.18;66.14;102423.13;5047777;28;1497;-67
2021/03/29 03:30:46;;;;;;;;;;;;;;;17.19;66.30;102440.88;5048084;28;1523;-68
2021/03/29 03:33:12;;;;;;;;;;;;;;;17.17;66.41;102427.63;5043339;28;1906;-68
2021/03/29 03:35:38;;;;;;;;;;;;;;;17.18;65.51;102425.81;5044055;28;791;-56
2021/03/29 03:38:16;;;;;;;;;;;;;;;17.17;65.24;102427.63;5039877;28;1413;-67
2021/03/29 03:40:45;;;;;;;;;;;;;;;17.16;65.21;102427.69;5040629;28;1717;-56
2021/03/29 03:43:13;;;;;;;;;;;;;;;17.17;66.33;102422.28;5049892;28;1366;-68
2021/03/29 03:45:41;;;;;;;;;;;;;;;17.18;66.21;102432.00;5048877;28;1374;-56
2021/03/29 03:48:07;;;;;;;;;;;;;;;17.15;66.13;102420.59;5047491;28;1513;-56
2021/03/29 03:50:32;;;;;;;;;;;;;;;17.14;66.12;102422.44;5047327;28;1271;-56
2021/03/29 03:52:58;;;;;;;;;;;;;;;17.14;66.10;102421.56;5047168;28;1898;-67
2021/03/29 03:55:24;;;;;;;;;;;;;;;17.13;65.96;102422.50;5046619;28;1585;-56
2021/03/29 03:57:49;;;;;;;;;;;;;;;17.14;65.95;102434.94;5047540;28;1422;-68
2021/03/29 04:00:16;;;;;;;;;;;;;;;17.15;65.38;102439.31;5047353;28;1588;-56
2021/03/29 04:02:43;;;;;;;;;;;;;;;17.18;66.30;102450.72;5046301;28;1631;-67
2021/03/29 04:05:11;;;;;;;;;;;;;;;17.17;66.25;102442.78;5045504;28;1536;-67
2021/03/29 04:07:36;;;;;;;;;;;;;;;17.13;65.04;102444.78;5046956;28;1289;-68
2021/03/29 04:10:12;;;;;;;;;;;;;;;17.14;65.14;102450.97;5046672;28;1775;-67
2021/03/29 04:12:37;;;;;;;;;;;;;;;17.16;65.27;102449.09;5047589;28;1410;-56
2021/03/29 04:15:03;;;;;;;;;;;;;;;17.17;65.72;102454.34;5045574;28;1965;-56
2021/03/29 04:17:29;;;;;;;;;;;;;;;17.13;66.49;102451.91;5046069;28;1417;-56
2021/03/29 04:19:54;;;;;;;;;;;;;;;17.16;66.34;102457.09;5044442;28;1559;-68
2021/03/29 04:22:19;;;;;;;;;;;;;;;17.13;65.30;102447.44;5045250;28;1429;-56
2021/03/29 04:24:45;;;;;;;;;;;;;;;17.12;65.62;102455.53;5046040;28;1417;-67
2021/03/29 04:27:10;;;;;;;;;;;;;;;17.16;66.37;102463.31;5046161;28;1607;-56
2021/03/29 04:29:36;;;;;;;;;;;;;;;17.14;66.19;102449.16;5045876;28;1437;-67
2021/03/29 04:32:01;;;;;;;;;;;;;;;17.15;66.01;102452.69;5044760;28;1426;-56
2021/03/29 04:34:27;;;;;;;;;;;;;;;17.14;66.03;102465.19;5046243;28;1906;-56
2021/03/29 04:36:53;;;;;;;;;;;;;;;17.14;66.02;102464.34;5045208;28;1504;-67
2021/03/29 04:39:18;;;;;;;;;;;;;;;17.16;66.50;102467.78;5046297;28;1622;-56
2021/03/29 04:41:44;;;;;;;;;;;;;;;17.15;65.38;102466.06;5046572;28;1412;-56
2021/03/29 04:44:09;;;;;;;;;;;;;;;17.14;66.12;102457.19;5045501;28;1469;-67
2021/03/29 04:46:36;;;;;;;;;;;;;;;17.14;65.41;102465.19;5046713;28;1572;-68
2021/03/29 04:49:02;;;;;;;;;;;;;;;17.17;65.27;102469.50;5046178;28;1380;-55
2021/03/29 04:51:28;;;;;;;;;;;;;;;17.16;65.34;102463.31;5045115;28;1293;-68
2021/03/29 04:53:53;;;;;;;;;;;;;;;17.17;66.23;102470.41;5046271;28;1881;-56
2021/03/29 04:56:19;;;;;;;;;;;;;;;17.16;65.52;102478.50;5049523;28;1639;-56
2021/03/29 04:58:44;;;;;;;;;;;;;;;17.16;66.25;102473.16;5050486;28;1520;-56
2021/03/29 05:01:09;;;;;;;;;;;;;;;17.16;66.25;102467.78;5047858;28;1398;-55
2021/03/29 05:03:35;;;;;;;;;;;;;;;17.16;66.03;102470.47;5048152;28;1516;-68
2021/03/29 05:06:00;;;;;;;;;;;;;;;17.18;66.27;102472.09;5050721;28;1413;-67
2021/03/29 05:08:25;;;;;;;;;;;;;;;17.16;65.30;102474.00;5051068;28;1513;-68
2021/03/29 05:10:51;;;;;;;;;;;;;;;17.16;66.23;102468.66;5048562;28;1569;-67
2021/03/29 05:13:16;;;;;;;;;;;;;;;17.19;65.50;102478.31;5046668;28;1910;-67
2021/03/29 05:15:41;;;;;;;;;;;;;;;17.18;65.39;102473.94;5048987;28;1429;-56
2021/03/29 05:18:07;;;;;;;;;;;;;;;17.19;64.98;102471.19;5047150;28;1564;-67
2021/03/29 05:20:32;;;;;;;;;;;;;;;17.20;65.78;102454.19;5050481;28;1365;-56
2021/03/29 05:22:58;;;;;;;;;;;;;;;17.21;65.73;102452.34;5048020;28;1426;-56
2021/03/29 05:25:23;;;;;;;;;;;;;;;17.20;65.43;102462.19;5047577;28;1583;-67
2021/03/29 05:27:49;;;;;;;;;;;;;;;17.21;65.55;102457.69;5051283;28;1333;-55
2021/03/29 05:30:14;;;;;;;;;;;;;;;17.23;64.29;102474.53;5053794;28;1338;-67
2021/03/29 05:32:40;;;;;;;;;;;;;;;17.27;65.46;102471.63;5051513;28;1568;-67
2021/03/29 05:35:05;;;;;;;;;;;;;;;17.26;65.25;102461.84;5051850;28;1941;-67
2021/03/29 05:37:31;;;;;;;;;;;;;;;17.29;64.41;102460.84;5053461;28;1357;-67
2021/03/29 05:39:57;;;;;;;;;;;;;;;17.29;64.67;102458.19;5051894;28;1524;-56
2021/03/29 05:42:24;;;;;;;;;;;;;;;17.32;65.20;102463.34;5055189;28;1472;-67
2021/03/29 05:44:53;;;;;;;;;;;;;;;17.34;64.94;102466.78;5046629;28;1389;-68
2021/03/29 05:47:18;;;;;;;;;;;;;;;17.39;64.59;102472.78;5073679;28;1401;-68
2021/03/29 05:49:44;;;;;;;;;;;;;;;17.42;65.10;102459.22;5049226;28;1567;-68
2021/03/29 05:52:10;;;;;;;;;;;;;;;17.44;64.08;102468.03;5047083;28;1444;-68
2021/03/29 05:54:35;;;;;;;;;;;;;;;17.50;64.93;102465.00;5047917;28;1948;-56
2021/03/29 05:57:01;;;;;;;;;;;;;;;17.47;64.46;102454.50;5049420;28;1645;-68
2021/03/29 05:59:34;;;;;;;;;;;;;;;17.52;64.43;102456.06;5051670;28;1417;-56
2021/03/29 06:01:59;;;;;;;;;;;;;;;17.53;65.32;102455.09;5051416;28;1376;-68
2021/03/29 06:04:42;;;;;;;;;;;;;;;17.78;63.66;102455.44;5050296;28;1485;-56
2021/03/29 06:07:11;;;;;;;;;;;;;;;17.91;63.12;102428.06;5047500;28;1473;-69
2021/03/29 06:09:36;;;;;;;;;;;;;;;17.99;62.79;102436.50;5052199;28;1362;-56
2021/03/29 06:12:02;;;;;;;;;;;;;;;17.93;63.07;102426.16;5051714;28;1485;-56
2021/03/29 06:14:29;;;;;;;;;;;;;;;17.96;62.83;102428.63;5048480;28;1906;-68
2021/03/29 06:16:59;;;;;;;;;;;;;;;18.01;62.90;102440.81;5049787;28;1588;-68
2021/03/29 06:19:40;;;;;;;;;;;;;;;17.64;61.58;102452.69;5050292;28;1653;-57
2021/03/29 06:22:13;;;;;;;;;;;;;;;17.83;60.40;102445.41;5050108;28;1404;-57
2021/03/29 06:24:57;;;;;;;;;;;;;;;18.05;61.54;102444.19;5051236;28;1424;-68
2021/03/29 06:27:24;;;;;;;;;;;;;;;18.10;61.62;102434.03;5053422;28;1373;-67
2021/03/29 06:29:50;;;;;;;;;;;;;;;18.04;61.99;102431.72;5049044;28;1636;-68
2021/03/29 06:32:18;;;;;;;;;;;;;;;18.06;62.46;102440.53;5052514;28;1372;-68
2021/03/29 06:34:44;;;;;;;;;;;;;;;18.03;61.95;102432.69;5051595;28;1885;-64
2021/03/29 06:37:10;;;;;;;;;;;;;;;18.07;62.01;102426.22;5051585;28;1711;-56
2021/03/29 06:39:36;;;;;;;;;;;;;;;18.12;63.00;102437.50;5051413;28;1352;-56
2021/03/29 06:42:02;;;;;;;;;;;;;;;18.18;62.42;102445.16;5053227;28;1357;-67
2021/03/29 06:44:30;;;;;;;;;;;;;;;18.18;62.16;102452.34;5049317;28;1731;-68
2021/03/29 06:47:12;;;;;;;;;;;;;;;18.19;62.76;102443.38;5050553;28;1511;-68
2021/03/29 06:49:37;;;;;;;;;;;;;;;18.20;62.85;102445.94;5050769;28;1478;-57
2021/03/29 06:52:18;;;;;;;;;;;;;;;18.20;63.28;102442.41;5051312;28;1410;-57
2021/03/29 06:54:43;;;;;;;;;;;;;;;18.21;62.96;102449.50;5053258;28;1957;-67
2021/03/29 06:57:09;;;;;;;;;;;;;;;18.14;63.00;102451.66;5053643;28;1362;-68
2021/03/29 06:59:36;;;;;;;;;;;;;;;18.16;63.12;102449.75;5052249;28;1356;-56
2021/03/29 07:02:06;;;;;;;;;;;;;;;18.13;63.49;102433.88;5051063;28;1502;-69
2021/03/29 07:04:33;;;;;;;;;;;;;;;18.21;63.18;102455.72;5050617;28;1502;-56
2021/03/29 07:06:59;;;;;;;;;;;;;;;18.27;63.41;102447.31;5050730;28;1373;-57
2021/03/29 07:09:24;;;;;;;;;;;;;;;18.32;63.46;102449.72;5049926;28;1877;-57
2021/03/29 07:11:49;;;;;;;;;;;;;;;18.33;63.19;102439.88;5052412;28;1549;-57
2021/03/29 07:14:18;;;;;;;;;;;;;;;18.41;63.09;102449.19;5047413;28;1917;-59
2021/03/29 07:16:44;;;;;;;;;;;;;;;18.41;62.89;102449.19;5045165;28;1386;-58
2021/03/29 07:19:10;;;;;;;;;;;;;;;18.37;62.45;102453.00;5050680;28;1424;-58
2021/03/29 07:21:35;;;;;;;;;;;;;;;18.38;62.78;102456.53;5049478;28;1715;-58
2021/03/29 07:24:02;;;;;;;;;;;;;;;18.38;62.91;102454.75;5044079;28;1686;-57
2021/03/29 07:26:32;;;;;;;;;;;;;;;18.38;62.86;102453.84;5041406;28;10915;-57
2021/03/29 07:28:57;;;;;;;;;;;;;;;18.35;62.94;102454.06;5041428;28;1310;-57
2021/03/29 07:31:41;;;;;;;;;;;;;;;18.34;63.18;102449.63;5047664;28;1424;-61
2021/03/29 07:34:07;;;;;;;;;;;;;;;18.33;63.25;102447.94;5041027;28;1967;-61
2021/03/29 07:36:48;;;;;;;;;;;;;;;18.31;63.13;102447.16;5043357;28;1223;-58
2021/03/29 07:39:19;;;;;;;;;;;;;;;18.33;63.02;102451.47;5046416;28;1504;-57
2021/03/29 07:41:45;;;;;;;;;;;;;;;18.33;62.83;102445.25;5044812;28;1332;-57
2021/03/29 07:44:15;;;;;;;;;;;;;;;18.44;62.63;102454.38;5044176;28;1433;-57
2021/03/29 07:46:42;;;;;;;;;;;;;;;18.43;63.20;102457.16;5042787;28;1378;-57
2021/03/29 07:49:26;;;;;;;;;;;;;;;18.42;62.69;102450.03;5044932;28;1616;-57
2021/03/29 07:52:12;;;;;;;;;;;;;;;18.38;62.93;102454.75;5040106;28;1378;-58
2021/03/29 07:54:56;;;;;;;;;;;;;;;18.35;61.57;102444.19;5037680;28;1906;-57
2021/03/29 07:58:00;;;;;;;;;;;;;;;18.33;61.70;102440.75;5050288;28;1349;-61
2021/03/29 08:00:27;;;;;;;;;;;;;;;18.33;60.97;102446.09;5003658;28;1614;-57
2021/03/29 08:03:00;;;;;;;;;;;;;;;18.33;60.68;102430.03;5034366;28;1468;-61
2021/03/29 08:05:28;;;;;;;;;;;;;;;18.33;60.48;102445.25;5045037;28;1529;-62
2021/03/29 08:07:56;;;;;;;;;;;;;;;18.33;60.44;102453.28;5042474;28;1465;-62
2021/03/29 08:10:42;;;;;;;;;;;;;;;18.35;60.54;102443.34;5046558;28;1345;-61
2021/03/29 08:13:07;;;;;;;;;;;;;;;18.33;60.21;102435.41;5044778;28;1977;-57
2021/03/29 08:15:51;;;;;;;;;;;;;;;18.33;60.72;102450.59;5044941;28;1455;-62
2021/03/29 08:18:16;;;;;;;;;;;;;;;18.35;59.88;102444.19;5041493;28;1283;-57
2021/03/29 08:20:52;;;;;;;;;;;;;;;18.37;60.25;102438.75;5044762;28;1358;-61
2021/03/29 08:23:31;;;;;;;;;;;;;;;18.37;59.87;102436.06;5048433;28;1373;-57
2021/03/29 08:26:07;;;;;;;;;;;;;;;18.38;59.59;102441.34;5047599;28;1390;-58
2021/03/29 08:28:51;;;;;;;;;;;;;;;18.38;59.82;102437.78;5046044;28;1497;-57
2021/03/29 08:31:35;;;;;;;;;;;;;;;18.38;60.33;102437.78;5042352;28;1521;-61
2021/03/29 08:34:01;;;;;;;;;;;;;;;18.36;59.97;102418.25;5044589;28;1898;-61
2021/03/29 08:36:27;;;;;;;;;;;;;;;18.34;60.22;102422.84;5045796;28;1370;-61
2021/03/29 08:38:52;;;;;;;;;;;;;;;18.35;60.24;102433.47;5046416;28;1326;-61
2021/03/29 08:41:18;;;;;;;;;;;;;;;18.34;59.68;102425.53;5048318;28;1416;-61
2021/03/29 08:43:44;;;;;;;;;;;;;;;18.36;60.08;102423.63;5047342;28;1343;-61
2021/03/29 08:46:09;;;;;;;;;;;;;;;18.35;60.29;102417.41;5044919;28;1367;-57
2021/03/29 08:48:35;;;;;;;;;;;;;;;18.35;59.98;102422.78;5045697;28;1258;-59
2021/03/29 08:51:03;;;;;;;;;;;;;;;18.37;60.28;102431.56;5046561;28;1463;-57
2021/03/29 08:53:28;;;;;;;;;;;;;;;18.34;59.83;102412.16;5046894;28;1950;-61
2021/03/29 08:55:53;;;;;;;;;;;;;;;18.36;60.06;102412.91;5048714;28;1448;-62
2021/03/29 08:58:19;;;;;;;;;;;;;;;18.38;60.01;102408.31;5047100;28;1495;-57
2021/03/29 09:00:44;;;;;;;;;;;;;;;18.35;60.04;102408.53;5042522;28;1458;-61
2021/03/29 09:03:16;;;;;;;;;;;;;;;18.36;60.29;102412.91;5059901;28;1486;-57
2021/03/29 09:05:41;;;;;;;;;;;;;;;18.36;60.27;102421.81;5045726;28;1592;-57
2021/03/29 09:08:11;;;;;;;;;;;;;;;18.34;60.86;102404.09;5043096;28;1425;-57
2021/03/29 09:10:36;;;;;;;;;;;;;;;18.36;60.96;102399.53;5044169;28;1645;-57
2021/03/29 09:13:09;;;;;;;;;;;;;;;18.33;60.99;102395.22;5047270;28;1991;-57
2021/03/29 09:15:36;;;;;;;;;;;;;;;18.34;60.56;102393.41;5046681;28;1421;-57
2021/03/29 09:18:06;;;;;;;;;;;;;;;18.34;60.32;102396.94;5046443;28;1457;-57
2021/03/29 09:20:33;;;;;;;;;;;;;;;18.35;60.91;102395.13;5039179;28;1339;-57
2021/03/29 09:22:58;;;;;;;;;;;;;;;18.34;60.86;102396.06;5046703;28;1632;-57
2021/03/29 09:25:25;;;;;;;;;;;;;;;18.33;60.14;102389.00;5046975;28;1397;-61
2021/03/29 09:30:53;;;;;;;;;;;;;;;18.36;60.31;102391.47;5035803;28;1622;-61
2021/03/29 09:33:19;;;;;;;;;;;;;;;18.37;59.87;102394.06;5045548;28;1890;-61
2021/03/29 09:35:45;;;;;;;;;;;;;;;18.37;59.96;102391.41;5045252;28;1322;-57
2021/03/29 09:38:12;;;;;;;;;;;;;;;18.40;60.50;102385.00;5047140;28;1513;-61
2021/03/29 09:40:37;;;;;;;;;;;;;;;18.39;60.53;102383.28;5044191;28;1421;-61
2021/03/29 09:43:03;;;;;;;;;;;;;;;18.37;60.33;102377.16;5045900;28;1417;-57
2021/03/29 09:45:29;;;;;;;;;;;;;;;18.34;61.15;102388.03;5046344;28;1506;-57
2021/03/29 09:48:03;;;;;;;;;;;;;;;18.27;60.89;102380.38;5045653;28;1322;-61
2021/03/29 09:50:30;;;;;;;;;;;;;;;18.28;60.94;102382.13;5045176;28;1468;-57
2021/03/29 09:53:06;;;;;;;;;;;;;;;18.30;60.96;102379.31;5045789;28;1397;-57
2021/03/29 09:55:55;;;;;;;;;;;;;;;18.30;60.72;102368.59;5043731;28;1414;-57
2021/03/29 09:58:22;;;;;;;;;;;;;;;18.31;60.61;102374.84;5044912;28;1453;-57
2021/03/29 10:00:48;;;;;;;;;;;;;;;18.37;60.38;102382.50;5044005;28;1495;-62
2021/03/29 10:03:17;;;;;;;;;;;;;;;18.36;61.10;102365.56;5045134;28;1616;-57
2021/03/29 10:05:43;;;;;;;;;;;;;;;18.37;60.43;102351.22;5045287;28;1378;-57
2021/03/29 10:08:08;;;;;;;;;;;;;;;18.39;60.75;102361.84;5044542;28;1339;-61
2021/03/29 10:10:34;;;;;;;;;;;;;;;18.40;60.87;102358.22;5043808;28;1820;-61
2021/03/29 10:13:12;;;;;;;;;;;;;;;18.39;60.56;102359.19;5044957;28;1432;-61
2021/03/29 10:15:39;;;;;;;;;;;;;;;18.40;60.98;102358.22;5044226;28;1721;-57
2021/03/29 10:18:08;;;;;;;;;;;;;;;18.38;61.16;102346.72;5047753;28;1307;-61
2021/03/29 10:20:35;;;;;;;;;;;;;;;18.40;61.24;102350.16;5050227;28;1295;-61
2021/03/29 10:23:19;;;;;;;;;;;;;;;18.38;60.40;102357.44;5041808;28;1640;-57
2021/03/29 10:25:44;;;;;;;;;;;;;;;18.37;60.09;102345.88;5045025;28;1358;-57
2021/03/29 10:28:16;;;;;;;;;;;;;;;18.39;60.65;102352.00;5046220;28;1633;-61
2021/03/29 10:30:42;;;;;;;;;;;;;;;18.36;59.63;102332.56;5043257;28;1701;-58
2021/03/29 10:33:08;;;;;;;;;;;;;;;18.37;59.29;102336.97;5047660;28;1886;-66
2021/03/29 10:35:33;;;;;;;;;;;;;;;18.34;59.83;102339.84;5048440;28;1283;-64
2021/03/29 10:38:02;;;;;;;;;;;;;;;18.35;59.87;102345.09;5047138;28;1330;-56
2021/03/29 10:40:27;;;;;;;;;;;;;;;18.41;58.89;102335.84;5044094;28;1298;-62
2021/03/29 10:42:54;;;;;;;;;;;;;;;18.32;57.38;102333.72;5048593;28;1406;-57
2021/03/29 10:45:20;;;;;;;;;;;;;;;18.33;58.00;102338.13;5050495;28;1338;-61
2021/03/29 10:47:46;;;;;;;;;;;;;;;18.32;58.89;102329.19;5049727;28;1640;-61
2021/03/29 10:50:13;;;;;;;;;;;;;;;18.35;59.69;102322.81;5047030;28;1374;-59
2021/03/29 10:52:39;;;;;;;;;;;;;;;18.39;58.85;102332.41;5045669;28;1322;-57
2021/03/29 10:55:05;;;;;;;;;;;;;;;18.36;59.15;102324.53;5049017;28;2033;-63
2021/03/29 10:57:31;;;;;;;;;;;;;;;18.41;59.26;102319.75;5046143;28;1402;-62
2021/03/29 10:59:56;;;;;;;;;;;;;;;18.42;59.37;102316.13;5047857;28;1643;-57
2021/03/29 11:02:22;;;;;;;;;;;;;;;18.37;59.68;102318.22;5044944;28;11126;-59
2021/03/29 11:04:48;;;;;;;;;;;;;;;18.36;59.25;102321.84;5047855;28;1528;-57
2021/03/29 11:07:13;;;;;;;;;;;;;;;18.34;59.60;102318.41;5048097;28;1562;-62
2021/03/29 11:09:40;;;;;;;;;;;;;;;18.34;59.75;102318.41;5046702;28;1389;-57
2021/03/29 11:12:06;;;;;;;;;;;;;;;18.32;59.99;102314.97;5043185;28;1382;-62
2021/03/29 11:14:31;;;;;;;;;;;;;;;18.31;59.73;102297.19;5047681;28;1902;-61
2021/03/29 11:16:57;;;;;;;;;;;;;;;18.33;59.76;102308.66;5047674;28;1595;-62
2021/03/29 11:19:22;;;;;;;;;;;;;;;18.33;60.30;102301.47;5041088;28;1392;-62
2021/03/29 11:21:48;;;;;;;;;;;;;;;18.30;60.10;102301.66;5047001;28;1409;-62
2021/03/29 11:24:14;;;;;;;;;;;;;;;18.29;60.14;102299.94;5047271;28;1485;-57
2021/03/29 11:26:39;;;;;;;;;;;;;;;18.28;60.72;102293.75;5041974;28;1286;-62
2021/03/29 11:29:05;;;;;;;;;;;;;;;18.25;60.36;102285.88;5047537;28;1204;-57
2021/03/29 11:31:31;;;;;;;;;;;;;;;18.28;60.87;102288.38;5044315;28;1382;-62
2021/03/29 11:33:56;;;;;;;;;;;;;;;18.27;60.56;102294.69;5048669;28;1874;-62
2021/03/29 11:36:22;;;;;;;;;;;;;;;18.30;60.79;102288.25;5046099;28;1362;-62
2021/03/29 11:38:47;;;;;;;;;;;;;;;18.31;60.32;102283.78;5048080;28;1385;-62
2021/03/29 11:41:13;;;;;;;;;;;;;;;18.35;60.38;102286.19;5045455;28;1333;-57
2021/03/29 11:43:39;;;;;;;;;;;;;;;18.31;60.39;102276.63;5042102;28;1338;-57
2021/03/29 11:46:04;;;;;;;;;;;;;;;18.28;60.41;102290.19;5046000;28;1275;-57
2021/03/29 11:48:30;;;;;;;;;;;;;;;18.31;60.44;102281.13;5041116;28;1419;-58
2021/03/29 11:50:55;;;;;;;;;;;;;;;18.28;60.97;102272.31;5045082;28;1507;-57
2021/03/29 11:53:20;;;;;;;;;;;;;;;18.32;60.64;102259.56;5049310;28;1893;-63
2021/03/29 11:55:46;;;;;;;;;;;;;;;18.32;60.57;102277.47;5045558;28;1580;-61
2021/03/29 11:58:12;;;;;;;;;;;;;;;18.31;61.30;102265.06;5048137;28;1306;-62
2021/03/29 12:03:18;;;;;;;;;;;;;;;18.31;60.66;102259.69;5045049;28;1379;-57
2021/03/29 12:05:51;;;;;;;;;;;;;;;18.28;61.12;102266.06;5046539;28;1334;-57
2021/03/29 12:13:45;;;;;;;;;;;;;;;18.28;60.96;102256.25;5042819;28;1922;-57
2021/03/29 12:16:11;;;;;;;;;;;;;;;18.21;61.11;102260.25;5043756;28;1322;-57
2021/03/29 12:18:46;;;;;;;;;;;;;;;18.26;61.53;102252.81;5044746;28;1465;-61
2021/03/29 12:21:17;;;;;;;;;;;;;;;18.26;61.15;102260.84;5046360;28;1340;-61
2021/03/29 12:23:44;;;;;;;;;;;;;;;18.23;60.87;102255.66;5042771;28;1414;-62
2021/03/29 12:26:10;;;;;;;;;;;;;;;18.20;61.12;102246.94;5046630;28;1639;-57
2021/03/29 12:28:36;;;;;;;;;;;;;;;18.21;61.24;102257.56;5047531;28;1457;-62
2021/03/29 12:31:02;;;;;;;;;;;;;;;17.87;61.65;102214.13;5045812;28;1433;-56
2021/03/29 12:33:29;;;;;;;;;;;;;;;18.17;61.84;102248.00;5047848;28;1945;-62
2021/03/29 12:35:57;;;;;;;;;;;;;;;18.18;61.53;102243.50;5043339;28;1483;-57
2021/03/29 12:38:26;;;;;;;;;;;;;;;18.24;60.35;102249.38;5047977;28;1397;-62
2021/03/29 12:40:55;;;;;;;;;;;;;;;18.18;59.68;102238.16;5046049;28;1104;-56
2021/03/29 12:43:31;;;;;;;;;;;;;;;18.11;58.64;102243.03;5046570;28;1497;-63
2021/03/29 12:45:57;;;;;;;;;;;;;;;18.04;59.66;102239.00;5046123;28;1395;-57
2021/03/29 12:48:22;;;;;;;;;;;;;;;18.03;57.48;102248.84;5045254;28;1378;-57
2021/03/29 12:50:48;;;;;;;;;;;;;;;18.04;59.92;102249.69;5046215;28;1448;-61
2021/03/29 12:53:14;;;;;;;;;;;;;;;17.99;58.24;102241.09;5046857;28;1937;-57
2021/03/29 12:55:39;;;;;;;;;;;;;;;17.99;57.06;102243.78;5047396;28;1305;-62
2021/03/29 12:58:05;;;;;;;;;;;;;;;17.99;57.24;102233.94;5058947;28;1401;-57
2021/03/29 13:00:30;;;;;;;;;;;;;;;17.98;58.69;102245.56;5046828;28;1306;-57
2021/03/29 13:02:59;;;;;;;;;;;;;;;17.04;44.80;102229.63;5044639;28;1498;-62
2021/03/29 13:05:39;;;;;;;;;;;;;;;16.74;42.40;102242.00;5044982;28;1334;-56
2021/03/29 13:13:04;;;;;;;;;;;;;;;16.47;38.85;102226.53;5046841;28;1308;-62